createdAt,value
2023-03-18T00:01:11.764Z,13.14
2023-03-18T00:03:39.294Z,13.12
2023-03-18T00:06:16.728Z,13.13
2023-03-18T00:08:45.467Z,13.09
2023-03-18T00:11:14.621Z,13.14
2023-03-18T00:13:42.495Z,12.98
2023-03-18T00:16:11.549Z,12.96
2023-03-18T00:18:40.297Z,12.93
2023-03-18T00:21:08.431Z,12.91
2023-03-18T00:23:37.052Z,12.95
2023-03-18T00:26:04.958Z,12.94
2023-03-18T00:28:32.763Z,12.84
2023-03-18T00:31:09.310Z,12.74
2023-03-18T00:33:38.327Z,12.79
2023-03-18T00:36:11.161Z,12.93
2023-03-18T00:38:38.574Z,12.75
2023-03-18T00:41:12.091Z,12.64
2023-03-18T00:43:52.733Z,12.75
2023-03-18T00:46:24.507Z,12.68
2023-03-18T00:48:54.149Z,12.51
2023-03-18T00:51:22.984Z,12.46
2023-03-18T00:53:52.551Z,12.44
2023-03-18T00:56:22.267Z,12.59
2023-03-18T00:58:52.569Z,12.53
2023-03-18T01:01:21.362Z,12.37
2023-03-18T01:03:50.122Z,12.54
2023-03-18T01:06:22.686Z,12.36
2023-03-18T01:08:50.629Z,12.16
2023-03-18T01:11:18.779Z,12.38
2023-03-18T01:13:46.609Z,12.43
2023-03-18T01:16:14.418Z,12.38
2023-03-18T01:18:41.979Z,12.40
2023-03-18T01:21:10.068Z,12.30
2023-03-18T01:23:42.402Z,12.33
2023-03-18T01:26:10.806Z,12.33
2023-03-18T01:28:42.501Z,12.34
2023-03-18T01:31:09.945Z,12.44
2023-03-18T01:33:37.342Z,12.39
2023-03-18T01:36:05.310Z,12.23
2023-03-18T01:38:33.961Z,12.12
2023-03-18T01:41:11.274Z,12.03
2023-03-18T01:43:41.237Z,12.20
2023-03-18T01:46:40.850Z,12.30
2023-03-18T01:49:17.544Z,12.40
2023-03-18T01:52:00.491Z,12.20
2023-03-18T01:54:29.769Z,12.23
2023-03-18T01:56:57.451Z,12.05
2023-03-18T01:59:28.463Z,12.03
2023-03-18T02:02:03.287Z,12.23
2023-03-18T02:04:37.639Z,12.19
2023-03-18T02:07:07.872Z,12.18
2023-03-18T02:09:35.261Z,12.14
2023-03-18T02:12:04.314Z,12.13
2023-03-18T02:14:32.398Z,12.20
2023-03-18T02:17:12.633Z,12.07
2023-03-18T02:19:54.435Z,12.00
2023-03-18T02:22:29.381Z,11.89
2023-03-18T02:25:12.128Z,11.95
2023-03-18T02:27:42.672Z,11.87
2023-03-18T02:30:22.914Z,11.93
2023-03-18T02:32:53.191Z,11.95
2023-03-18T02:35:20.731Z,11.76
2023-03-18T02:37:48.989Z,11.90
2023-03-18T02:40:33.297Z,11.78
2023-03-18T02:43:32.693Z,11.96
2023-03-18T02:46:15.479Z,12.05
2023-03-18T02:48:44.878Z,12.03
2023-03-18T02:51:14.586Z,12.06
2023-03-18T02:53:43.823Z,12.22
2023-03-18T02:56:13.555Z,12.14
2023-03-18T02:58:42.661Z,12.00
2023-03-18T03:01:11.492Z,11.98
2023-03-18T03:03:39.384Z,12.25
2023-03-18T03:06:07.670Z,11.98
2023-03-18T03:08:35.180Z,12.06
2023-03-18T03:11:05.574Z,12.15
2023-03-18T03:13:36.075Z,12.02
2023-03-18T03:16:03.859Z,11.88
2023-03-18T03:18:31.201Z,12.09
2023-03-18T03:20:58.878Z,12.06
2023-03-18T03:23:26.226Z,12.05
2023-03-18T03:25:53.524Z,12.24
2023-03-18T03:28:21.303Z,12.23
2023-03-18T03:30:49.544Z,12.01
2023-03-18T03:33:16.909Z,12.02
2023-03-18T03:35:44.203Z,11.97
2023-03-18T03:38:12.293Z,11.69
2023-03-18T03:40:40.260Z,11.82
2023-03-18T03:43:07.611Z,11.94
2023-03-18T03:45:34.850Z,12.16
2023-03-18T03:48:02.121Z,12.15
2023-03-18T03:50:29.798Z,11.87
2023-03-18T03:52:58.249Z,11.95
2023-03-18T03:55:27.798Z,11.95
2023-03-18T03:57:56.447Z,12.11
2023-03-18T04:00:24.648Z,12.17
2023-03-18T04:02:53.027Z,12.21
2023-03-18T04:05:23.572Z,12.12
2023-03-18T04:07:51.520Z,12.08
2023-03-18T04:10:23.004Z,12.15
2023-03-18T04:12:50.883Z,12.13
2023-03-18T04:15:19.909Z,12.19
2023-03-18T04:17:49.998Z,12.22
2023-03-18T04:20:19.107Z,12.13
2023-03-18T04:22:47.945Z,11.91
2023-03-18T04:25:17.283Z,12.09
2023-03-18T04:27:45.069Z,12.25
2023-03-18T04:30:14.173Z,12.17
2023-03-18T04:32:55.008Z,12.17
2023-03-18T04:35:26.146Z,12.32
2023-03-18T04:37:54.267Z,12.21
2023-03-18T04:40:22.376Z,12.20
2023-03-18T04:42:50.279Z,12.24
2023-03-18T04:45:23.276Z,12.21
2023-03-18T04:47:50.776Z,12.07
2023-03-18T04:50:19.172Z,12.05
2023-03-18T04:52:47.178Z,12.04
2023-03-18T04:55:20.633Z,12.10
2023-03-18T04:57:50.760Z,12.16
2023-03-18T05:00:22.332Z,11.65
2023-03-18T05:02:53.323Z,11.79
2023-03-18T05:05:23.314Z,11.65
2023-03-18T05:07:52.187Z,11.58
2023-03-18T05:10:21.337Z,11.45
2023-03-18T05:12:48.883Z,11.62
2023-03-18T05:15:20.309Z,11.60
2023-03-18T05:17:53.842Z,11.36
2023-03-18T05:20:21.469Z,11.48
2023-03-18T05:22:49.176Z,11.34
2023-03-18T05:25:27.130Z,11.31
2023-03-18T05:27:54.602Z,11.48
2023-03-18T05:30:33.041Z,11.47
2023-03-18T05:33:00.456Z,11.63
2023-03-18T05:35:48.684Z,11.43
2023-03-18T05:38:18.797Z,11.42
2023-03-18T05:40:46.794Z,11.29
2023-03-18T05:43:21.899Z,11.29
2023-03-18T05:45:53.254Z,11.14
2023-03-18T05:48:27.129Z,11.07
2023-03-18T05:50:58.819Z,11.18
2023-03-18T05:53:27.833Z,11.04
2023-03-18T05:56:08.759Z,11.07
2023-03-18T05:58:36.956Z,10.98
2023-03-18T06:01:22.742Z,10.74
2023-03-18T06:03:50.752Z,10.73
2023-03-18T06:06:19.805Z,11.02
2023-03-18T06:08:47.172Z,11.13
2023-03-18T06:11:15.268Z,11.07
2023-03-18T06:13:44.132Z,10.97
2023-03-18T06:16:12.459Z,10.75
2023-03-18T06:18:40.731Z,10.99
2023-03-18T06:21:10.035Z,10.94
2023-03-18T06:23:37.739Z,10.95
2023-03-18T06:26:05.253Z,11.06
2023-03-18T06:28:37.520Z,11.24
2023-03-18T06:31:10.787Z,11.06
2023-03-18T06:33:39.243Z,11.09
2023-03-18T06:36:09.100Z,11.13
2023-03-18T06:38:40.565Z,11.34
2023-03-18T06:41:08.902Z,11.30
2023-03-18T06:43:40.411Z,11.44
2023-03-18T06:46:08.081Z,11.63
2023-03-18T06:48:36.515Z,11.63
2023-03-18T06:51:03.930Z,11.48
2023-03-18T06:53:36.535Z,11.66
2023-03-18T06:56:06.058Z,11.64
2023-03-18T06:58:43.484Z,11.60
2023-03-18T07:01:12.717Z,11.63
2023-03-18T07:03:43.640Z,11.68
2023-03-18T07:06:12.362Z,11.75
2023-03-18T07:08:40.994Z,11.50
2023-03-18T07:11:08.757Z,11.57
2023-03-18T07:13:39.332Z,11.73
2023-03-18T07:16:13.567Z,11.86
2023-03-18T07:18:40.961Z,11.67
2023-03-18T07:21:09.708Z,11.71
2023-03-18T07:23:37.601Z,11.57
2023-03-18T07:26:05.062Z,11.41
2023-03-18T07:28:32.927Z,11.58
2023-03-18T07:31:01.168Z,11.60
2023-03-18T07:33:28.989Z,11.63
2023-03-18T07:35:56.808Z,11.71
2023-03-18T07:38:24.356Z,11.89
2023-03-18T07:40:52.290Z,11.71
2023-03-18T07:43:19.567Z,11.65
2023-03-18T07:45:46.806Z,11.72
2023-03-18T07:48:14.340Z,11.75
2023-03-18T07:50:41.909Z,11.74
2023-03-18T07:53:09.383Z,11.82
2023-03-18T07:55:36.619Z,11.67
2023-03-18T07:58:04.686Z,11.55
2023-03-18T08:00:32.444Z,11.81
2023-03-18T08:02:59.746Z,11.88
2023-03-18T08:05:27.601Z,11.89
2023-03-18T08:07:55.306Z,12.23
2023-03-18T08:10:22.590Z,12.13
2023-03-18T08:12:53.498Z,12.18
2023-03-18T08:15:22.357Z,12.27
2023-03-18T08:17:52.565Z,12.31
2023-03-18T08:20:20.168Z,12.24
2023-03-18T08:22:48.457Z,12.45
2023-03-18T08:25:15.849Z,12.54
2023-03-18T08:27:43.237Z,12.47
2023-03-18T08:30:11.522Z,12.62
2023-03-18T08:32:39.838Z,12.83
2023-03-18T08:35:07.443Z,12.98
2023-03-18T08:37:35.862Z,12.91
2023-03-18T08:40:05.231Z,13.03
2023-03-18T08:42:32.513Z,12.98
2023-03-18T08:44:59.745Z,12.89
2023-03-18T08:47:27.487Z,12.88
2023-03-18T08:49:54.654Z,12.93
2023-03-18T08:52:22.458Z,13.27
2023-03-18T08:54:49.898Z,13.40
2023-03-18T08:57:17.996Z,13.41
2023-03-18T08:59:45.797Z,13.47
2023-03-18T09:02:18.393Z,13.40
2023-03-18T09:04:46.642Z,13.46
2023-03-18T09:07:14.741Z,13.46
2023-03-18T09:09:44.062Z,13.54
2023-03-18T09:12:14.103Z,13.65
2023-03-18T09:14:43.698Z,13.68
2023-03-18T09:17:11.387Z,13.48
2023-03-18T09:19:38.741Z,13.70
2023-03-18T09:22:05.999Z,13.94
2023-03-18T09:24:33.319Z,13.93
2023-03-18T09:27:00.555Z,14.01
2023-03-18T09:29:27.871Z,13.92
2023-03-18T09:31:55.732Z,14.05
2023-03-18T09:34:23.669Z,14.22
2023-03-18T09:36:51.923Z,14.14
2023-03-18T09:39:20.428Z,14.45
2023-03-18T09:42:03.722Z,14.38
2023-03-18T09:44:36.345Z,14.43
2023-03-18T09:47:28.399Z,14.71
2023-03-18T09:50:16.792Z,14.54
2023-03-18T09:52:48.008Z,14.58
2023-03-18T09:55:27.378Z,14.85
2023-03-18T09:57:57.698Z,15.01
2023-03-18T10:00:30.124Z,15.07
2023-03-18T10:03:06.483Z,15.09
2023-03-18T10:05:34.801Z,15.22
2023-03-18T10:08:08.235Z,15.39
2023-03-18T10:10:38.340Z,15.49
2023-03-18T10:13:13.801Z,15.50
2023-03-18T10:15:43.288Z,15.55
2023-03-18T10:18:13.542Z,15.65
2023-03-18T10:20:56.900Z,15.41
2023-03-18T10:23:36.379Z,15.84
2023-03-18T10:26:33.289Z,15.74
2023-03-18T10:29:03.956Z,15.70
2023-03-18T10:31:38.905Z,15.71
2023-03-18T10:34:13.287Z,15.50
2023-03-18T10:36:49.798Z,15.48
2023-03-18T10:39:19.590Z,15.51
2023-03-18T10:41:51.549Z,15.61
2023-03-18T10:44:33.042Z,15.52
2023-03-18T10:47:11.444Z,15.73
2023-03-18T10:49:42.520Z,15.92
2023-03-18T10:52:43.533Z,16.16
2023-03-18T10:55:19.960Z,16.19
2023-03-18T10:57:47.571Z,16.30
2023-03-18T11:00:30.778Z,16.41
2023-03-18T11:02:59.415Z,16.43
2023-03-18T11:05:30.169Z,16.48
2023-03-18T11:08:00.796Z,16.55
2023-03-18T11:10:34.621Z,16.57
2023-03-18T11:13:03.391Z,16.47
2023-03-18T11:15:37.002Z,16.39
2023-03-18T11:18:05.305Z,16.34
2023-03-18T11:20:43.102Z,16.59
2023-03-18T11:23:18.043Z,16.63
2023-03-18T11:25:46.947Z,16.40
2023-03-18T11:28:23.155Z,16.52
2023-03-18T11:30:56.156Z,16.41
2023-03-18T11:33:24.846Z,16.32
2023-03-18T11:35:58.450Z,16.52
2023-03-18T11:38:31.779Z,16.50
2023-03-18T11:41:09.149Z,16.57
2023-03-18T11:43:37.972Z,16.49
2023-03-18T11:46:05.849Z,16.72
2023-03-18T11:48:37.441Z,16.60
2023-03-18T11:51:29.623Z,16.81
2023-03-18T11:54:19.174Z,16.72
2023-03-18T11:56:57.543Z,16.80
2023-03-18T11:59:33.104Z,16.72
2023-03-18T12:02:22.725Z,16.81
2023-03-18T12:04:59.343Z,16.75
2023-03-18T12:07:54.817Z,17.03
2023-03-18T12:10:24.047Z,17.00
2023-03-18T12:13:15.831Z,17.07
2023-03-18T12:16:20.698Z,17.23
2023-03-18T12:19:33.287Z,17.18
2023-03-18T12:22:48.965Z,17.32
2023-03-18T12:26:03.941Z,17.50
2023-03-18T12:28:41.633Z,17.50
2023-03-18T12:31:24.928Z,17.47
2023-03-18T12:34:25.761Z,17.37
2023-03-18T12:37:02.703Z,17.77
2023-03-18T12:39:42.816Z,17.80
2023-03-18T12:42:31.713Z,17.47
2023-03-18T12:45:02.197Z,17.20
2023-03-18T12:47:35.895Z,17.39
2023-03-18T12:50:16.461Z,17.33
2023-03-18T12:52:52.947Z,17.06
2023-03-18T12:55:49.419Z,17.07
2023-03-18T12:58:19.756Z,17.13
2023-03-18T13:00:53.545Z,17.06
2023-03-18T13:03:40.184Z,17.05
2023-03-18T13:06:37.580Z,17.20
2023-03-18T13:09:21.864Z,16.57
2023-03-18T13:12:16.300Z,16.75
2023-03-18T13:14:52.350Z,16.78
2023-03-18T13:17:29.700Z,16.64
2023-03-18T13:20:01.215Z,16.59
2023-03-18T13:22:44.071Z,16.57
2023-03-18T13:25:18.115Z,16.70
2023-03-18T13:28:11.541Z,16.75
2023-03-18T13:31:06.492Z,16.75
2023-03-18T13:33:53.140Z,16.85
2023-03-18T13:36:32.494Z,16.85
2023-03-18T13:39:26.758Z,16.65
2023-03-18T13:42:18.501Z,16.73
2023-03-18T13:44:58.412Z,16.85
2023-03-18T13:47:30.061Z,16.82
2023-03-18T13:50:30.258Z,17.03
2023-03-18T13:52:59.683Z,16.89
2023-03-18T13:55:40.149Z,16.91
2023-03-18T13:58:30.308Z,17.12
2023-03-18T14:01:03.329Z,16.90
2023-03-18T14:03:33.218Z,17.06
2023-03-18T14:06:13.061Z,17.31
2023-03-18T14:08:44.275Z,17.51
2023-03-18T14:11:17.831Z,17.77
2023-03-18T14:13:51.882Z,17.69
2023-03-18T14:16:30.061Z,17.72
2023-03-18T14:19:00.239Z,17.49
2023-03-18T14:21:28.554Z,17.63
2023-03-18T14:24:17.436Z,17.80
2023-03-18T14:27:08.671Z,17.96
2023-03-18T14:29:44.992Z,17.77
2023-03-18T14:32:34.200Z,17.77
2023-03-18T14:35:16.667Z,17.71
2023-03-18T14:38:03.533Z,17.67
2023-03-18T14:40:36.372Z,17.63
2023-03-18T14:43:09.800Z,17.71
2023-03-18T14:45:40.585Z,17.68
2023-03-18T14:48:21.516Z,17.44
2023-03-18T14:50:52.872Z,17.48
2023-03-18T14:53:40.474Z,17.57
2023-03-18T14:56:21.874Z,17.81
2023-03-18T14:58:53.432Z,17.69
2023-03-18T15:01:27.670Z,17.87
2023-03-18T15:03:55.933Z,17.79
2023-03-18T15:06:25.743Z,17.55
2023-03-18T15:08:58.694Z,17.49
2023-03-18T15:11:26.572Z,17.46
2023-03-18T15:13:56.598Z,17.62
2023-03-18T15:16:25.346Z,17.73
2023-03-18T15:18:54.865Z,17.76
2023-03-18T15:21:37.447Z,17.69
2023-03-18T15:24:07.718Z,17.85
2023-03-18T15:26:37.999Z,17.84
2023-03-18T15:29:33.914Z,17.56
2023-03-18T15:32:14.876Z,17.64
2023-03-18T15:34:43.950Z,17.79
2023-03-18T15:37:25.987Z,17.92
2023-03-18T15:39:56.669Z,17.73
2023-03-18T15:42:24.253Z,17.91
2023-03-18T15:45:01.579Z,17.54
2023-03-18T15:47:31.562Z,17.34
2023-03-18T15:50:09.905Z,17.12
2023-03-18T15:52:41.784Z,17.06
2023-03-18T15:55:32.868Z,17.29
2023-03-18T15:58:01.199Z,17.39
2023-03-18T16:00:28.766Z,17.39
2023-03-18T16:02:56.092Z,17.44
2023-03-18T16:05:26.257Z,17.44
2023-03-18T16:07:54.379Z,17.52
2023-03-18T16:10:23.848Z,17.61
2023-03-18T16:12:56.274Z,17.38
2023-03-18T16:15:25.123Z,17.07
2023-03-18T16:17:53.810Z,17.04
2023-03-18T16:20:22.837Z,16.78
2023-03-18T16:22:50.999Z,16.96
2023-03-18T16:27:51.944Z,17.05
2023-03-18T16:30:24.974Z,16.94
2023-03-18T16:32:53.951Z,16.99
2023-03-18T16:35:26.387Z,16.89
2023-03-18T16:37:53.674Z,16.84
2023-03-18T16:40:23.090Z,16.82
2023-03-18T16:42:51.065Z,16.83
2023-03-18T16:45:22.281Z,16.77
2023-03-18T16:47:51.220Z,16.78
2023-03-18T16:50:20.550Z,16.88
2023-03-18T16:52:48.020Z,16.76
2023-03-18T16:55:17.734Z,16.59
2023-03-18T16:57:56.332Z,16.62
2023-03-18T17:00:26.157Z,16.66
2023-03-18T17:02:53.695Z,16.55
2023-03-18T17:05:22.081Z,16.33
2023-03-18T17:07:50.238Z,16.30
2023-03-18T17:10:27.474Z,16.35
2023-03-18T17:12:57.842Z,16.03
2023-03-18T17:15:31.849Z,16.24
2023-03-18T17:17:59.908Z,16.07
2023-03-18T17:20:29.063Z,16.02
2023-03-18T17:22:56.251Z,15.98
2023-03-18T17:25:25.640Z,15.92
2023-03-18T17:28:05.094Z,15.99
2023-03-18T17:30:35.217Z,15.94
2023-03-18T17:33:03.485Z,15.80
2023-03-18T17:35:30.946Z,15.98
2023-03-18T17:37:59.174Z,15.77
2023-03-18T17:40:29.088Z,15.81
2023-03-18T17:42:56.489Z,15.79
2023-03-18T17:45:32.379Z,15.82
2023-03-18T17:48:22.408Z,15.90
2023-03-18T17:50:52.612Z,15.87
2023-03-18T17:53:24.364Z,15.85
2023-03-18T17:55:51.839Z,15.84
2023-03-18T17:58:21.306Z,15.66
2023-03-18T18:00:48.671Z,15.54
2023-03-18T18:03:25.643Z,15.61
2023-03-18T18:05:55.208Z,15.41
2023-03-18T18:08:24.972Z,15.32
2023-03-18T18:10:53.530Z,15.32
2023-03-18T18:13:22.759Z,15.59
2023-03-18T18:15:51.974Z,15.69
2023-03-18T18:18:25.697Z,15.40
2023-03-18T18:21:01.304Z,15.28
2023-03-18T18:23:33.728Z,15.33
2023-03-18T18:26:04.618Z,15.33
2023-03-18T18:28:34.799Z,15.35
2023-03-18T18:31:03.727Z,15.76
2023-03-18T18:33:32.227Z,15.70
2023-03-18T18:36:00.041Z,15.52
2023-03-18T18:38:27.540Z,15.59
2023-03-18T18:40:56.265Z,15.30
2023-03-18T18:43:24.945Z,15.13
2023-03-18T18:45:53.664Z,15.30
2023-03-18T18:48:34.627Z,15.13
2023-03-18T18:51:04.247Z,15.04
2023-03-18T18:53:38.524Z,14.90
2023-03-18T18:56:25.310Z,14.90
2023-03-18T18:58:53.281Z,14.95
2023-03-18T19:01:21.114Z,14.88
2023-03-18T19:03:48.856Z,14.94
2023-03-18T19:06:27.729Z,14.85
2023-03-18T19:08:56.620Z,14.86
2023-03-18T19:11:25.013Z,15.06
2023-03-18T19:13:53.256Z,15.05
2023-03-18T19:16:33.232Z,15.04
2023-03-18T19:19:01.185Z,14.86
2023-03-18T19:21:28.711Z,14.89
2023-03-18T19:23:58.299Z,14.82
2023-03-18T19:26:25.567Z,14.86
2023-03-18T19:28:58.784Z,14.91
2023-03-18T19:31:30.478Z,14.76
2023-03-18T19:33:59.895Z,14.81
2023-03-18T19:36:38.891Z,14.91
2023-03-18T19:39:06.295Z,14.72
2023-03-18T19:41:33.581Z,14.73
2023-03-18T19:44:14.700Z,14.78
2023-03-18T19:46:42.290Z,14.80
2023-03-18T19:49:16.883Z,14.66
2023-03-18T19:51:44.236Z,14.79
2023-03-18T19:54:27.303Z,14.71
2023-03-18T19:56:56.332Z,14.96
2023-03-18T19:59:25.359Z,14.87
2023-03-18T20:01:52.935Z,14.92
2023-03-18T20:04:20.660Z,14.72
2023-03-18T20:06:48.006Z,14.58
2023-03-18T20:09:15.473Z,14.46
2023-03-18T20:11:42.869Z,14.46
2023-03-18T20:14:31.231Z,14.54
2023-03-18T20:17:05.874Z,14.60
2023-03-18T20:19:33.219Z,14.51
2023-03-18T20:22:00.484Z,14.45
2023-03-18T20:24:29.495Z,14.59
2023-03-18T20:26:56.827Z,14.38
2023-03-18T20:29:25.385Z,14.44
2023-03-18T20:31:53.533Z,14.44
2023-03-18T20:34:20.979Z,14.36
2023-03-18T20:36:48.322Z,14.35
2023-03-18T20:39:21.576Z,14.32
2023-03-18T20:41:48.916Z,14.28
2023-03-18T20:44:16.931Z,14.26
2023-03-18T20:46:44.135Z,14.09
2023-03-18T20:49:11.431Z,14.23
2023-03-18T20:51:40.925Z,14.16
2023-03-18T20:54:18.858Z,14.08
2023-03-18T20:56:46.850Z,14.17
2023-03-18T20:59:14.206Z,14.18
2023-03-18T21:01:41.710Z,14.21
2023-03-18T21:04:12.012Z,14.26
2023-03-18T21:06:42.080Z,14.17
2023-03-18T21:09:13.909Z,14.12
2023-03-18T21:11:41.203Z,14.13
2023-03-18T21:14:14.236Z,14.30
2023-03-18T21:16:41.666Z,14.23
2023-03-18T21:19:09.057Z,14.26
2023-03-18T21:21:38.384Z,14.18
2023-03-18T21:24:31.623Z,14.22
2023-03-18T21:27:04.654Z,14.17
2023-03-18T21:29:33.436Z,14.33
2023-03-18T21:32:02.465Z,14.16
2023-03-18T21:34:29.859Z,14.16
2023-03-18T21:36:57.340Z,14.17
2023-03-18T21:39:24.635Z,14.05
2023-03-18T21:41:52.567Z,13.96
2023-03-18T21:44:19.756Z,14.12
2023-03-18T21:46:47.094Z,14.15
2023-03-18T21:49:14.467Z,14.25
2023-03-18T21:51:41.925Z,14.29
2023-03-18T21:54:17.845Z,14.15
2023-03-18T21:56:45.178Z,14.09
2023-03-18T21:59:12.456Z,14.09
2023-03-18T22:01:40.038Z,14.15
2023-03-18T22:04:07.522Z,14.12
2023-03-18T22:06:34.808Z,14.05
2023-03-18T22:09:02.364Z,14.09
2023-03-18T22:11:29.778Z,14.10
2023-03-18T22:13:57.148Z,13.98
2023-03-18T22:16:24.548Z,13.95
2023-03-18T22:18:51.948Z,14.00
2023-03-18T22:21:23.594Z,13.94
2023-03-18T22:23:51.262Z,13.98
2023-03-18T22:26:19.882Z,14.11
2023-03-18T22:28:48.490Z,14.03
2023-03-18T22:31:22.783Z,14.16
2023-03-18T22:33:51.048Z,14.17
2023-03-18T22:36:19.632Z,14.16
2023-03-18T22:38:47.426Z,14.18
2023-03-18T22:41:23.458Z,14.13
2023-03-18T22:43:51.197Z,14.02
2023-03-18T22:46:18.597Z,14.02
2023-03-18T22:48:46.135Z,13.95
2023-03-18T22:51:22.461Z,14.01
2023-03-18T22:53:52.132Z,14.01
2023-03-18T22:56:22.612Z,14.04
2023-03-18T22:58:50.788Z,14.21
2023-03-18T23:01:20.919Z,14.24
2023-03-18T23:03:48.988Z,13.99
2023-03-18T23:06:19.970Z,13.96
2023-03-18T23:08:50.106Z,13.99
2023-03-18T23:11:17.864Z,13.95
2023-03-18T23:13:49.948Z,14.05
2023-03-18T23:16:20.587Z,14.06
2023-03-18T23:18:48.504Z,14.02
2023-03-18T23:21:24.979Z,13.82
2023-03-18T23:23:52.887Z,13.90
2023-03-18T23:26:22.609Z,13.95
2023-03-18T23:28:49.904Z,14.03
2023-03-18T23:31:17.411Z,13.85
2023-03-18T23:33:44.984Z,13.93
2023-03-18T23:36:13.063Z,13.82
2023-03-18T23:38:43.417Z,14.02
2023-03-18T23:41:11.731Z,13.95
2023-03-18T23:43:42.470Z,13.90
2023-03-18T23:46:09.863Z,13.78
2023-03-18T23:48:37.109Z,13.70
2023-03-18T23:51:04.379Z,13.88
2023-03-18T23:53:32.153Z,13.79
2023-03-18T23:55:59.336Z,13.86
2023-03-18T23:58:26.564Z,13.95
